sensor_id;sensor_type;location;lat;lon;timestamp;P1;durP1;ratioP1;P2;durP2;ratioP2
17618;SDS011;8928;51.678;6.074;2023-07-29T00:02:12;11.67;;;9.47;;
17618;SDS011;8928;51.678;6.074;2023-07-29T00:04:59;16.37;;;11.10;;
17618;SDS011;8928;51.678;6.074;2023-07-29T00:07:48;22.87;;;11.10;;
17618;SDS011;8928;51.678;6.074;2023-07-29T00:10:35;13.17;;;9.43;;
17618;SDS011;8928;51.678;6.074;2023-07-29T00:13:23;12.20;;;7.30;;
17618;SDS011;8928;51.678;6.074;2023-07-29T00:16:10;10.87;;;6.50;;
17618;SDS011;8928;51.678;6.074;2023-07-29T00:18:57;7.97;;;5.25;;
17618;SDS011;8928;51.678;6.074;2023-07-29T00:21:44;8.23;;;4.97;;
17618;SDS011;8928;51.678;6.074;2023-07-29T00:24:32;8.77;;;4.93;;
17618;SDS011;8928;51.678;6.074;2023-07-29T00:27:19;8.38;;;5.35;;
17618;SDS011;8928;51.678;6.074;2023-07-29T00:30:07;8.05;;;4.90;;
17618;SDS011;8928;51.678;6.074;2023-07-29T00:32:54;8.00;;;4.70;;
17618;SDS011;8928;51.678;6.074;2023-07-29T00:35:41;7.40;;;4.60;;
17618;SDS011;8928;51.678;6.074;2023-07-29T00:38:28;7.37;;;4.47;;
17618;SDS011;8928;51.678;6.074;2023-07-29T00:41:17;7.97;;;4.50;;
17618;SDS011;8928;51.678;6.074;2023-07-29T00:44:04;9.20;;;4.63;;
17618;SDS011;8928;51.678;6.074;2023-07-29T00:46:51;6.27;;;4.23;;
17618;SDS011;8928;51.678;6.074;2023-07-29T00:49:39;7.50;;;4.40;;
17618;SDS011;8928;51.678;6.074;2023-07-29T00:52:26;6.93;;;4.50;;
17618;SDS011;8928;51.678;6.074;2023-07-29T00:55:13;7.60;;;4.50;;
17618;SDS011;8928;51.678;6.074;2023-07-29T00:58:01;7.83;;;4.50;;
17618;SDS011;8928;51.678;6.074;2023-07-29T01:00:49;9.52;;;4.90;;
17618;SDS011;8928;51.678;6.074;2023-07-29T01:03:37;7.23;;;4.23;;
17618;SDS011;8928;51.678;6.074;2023-07-29T01:06:26;7.90;;;4.65;;
17618;SDS011;8928;51.678;6.074;2023-07-29T01:09:23;12.07;;;5.25;;
17618;SDS011;8928;51.678;6.074;2023-07-29T01:12:18;8.13;;;5.03;;
17618;SDS011;8928;51.678;6.074;2023-07-29T01:15:11;6.82;;;4.57;;
17618;SDS011;8928;51.678;6.074;2023-07-29T01:18:02;9.35;;;4.95;;
17618;SDS011;8928;51.678;6.074;2023-07-29T01:20:52;10.83;;;4.90;;
17618;SDS011;8928;51.678;6.074;2023-07-29T01:23:42;13.50;;;4.63;;
17618;SDS011;8928;51.678;6.074;2023-07-29T01:26:29;7.50;;;4.57;;
17618;SDS011;8928;51.678;6.074;2023-07-29T01:29:16;8.70;;;4.47;;
17618;SDS011;8928;51.678;6.074;2023-07-29T01:32:04;7.38;;;4.72;;
17618;SDS011;8928;51.678;6.074;2023-07-29T01:34:56;7.97;;;4.65;;
17618;SDS011;8928;51.678;6.074;2023-07-29T01:37:51;7.95;;;4.80;;
17618;SDS011;8928;51.678;6.074;2023-07-29T01:40:42;7.90;;;4.23;;
17618;SDS011;8928;51.678;6.074;2023-07-29T01:43:31;9.67;;;4.90;;
17618;SDS011;8928;51.678;6.074;2023-07-29T01:46:18;8.88;;;4.10;;
17618;SDS011;8928;51.678;6.074;2023-07-29T01:49:05;10.07;;;4.70;;
17618;SDS011;8928;51.678;6.074;2023-07-29T01:51:52;13.52;;;5.15;;
17618;SDS011;8928;51.678;6.074;2023-07-29T01:54:39;10.68;;;5.10;;
17618;SDS011;8928;51.678;6.074;2023-07-29T01:57:28;7.90;;;4.68;;
17618;SDS011;8928;51.678;6.074;2023-07-29T02:00:15;7.70;;;4.80;;
17618;SDS011;8928;51.678;6.074;2023-07-29T02:03:03;6.95;;;5.00;;
17618;SDS011;8928;51.678;6.074;2023-07-29T02:05:50;14.00;;;5.53;;
17618;SDS011;8928;51.678;6.074;2023-07-29T02:08:37;8.10;;;5.38;;
17618;SDS011;8928;51.678;6.074;2023-07-29T02:11:26;9.73;;;5.10;;
17618;SDS011;8928;51.678;6.074;2023-07-29T02:14:14;13.68;;;6.13;;
17618;SDS011;8928;51.678;6.074;2023-07-29T02:17:01;13.60;;;5.90;;
17618;SDS011;8928;51.678;6.074;2023-07-29T02:19:49;11.50;;;6.45;;
17618;SDS011;8928;51.678;6.074;2023-07-29T02:22:36;10.35;;;6.70;;
17618;SDS011;8928;51.678;6.074;2023-07-29T02:25:23;10.82;;;6.43;;
17618;SDS011;8928;51.678;6.074;2023-07-29T02:28:10;10.98;;;7.32;;
17618;SDS011;8928;51.678;6.074;2023-07-29T02:31:13;12.27;;;7.30;;
17618;SDS011;8928;51.678;6.074;2023-07-29T02:34:02;11.73;;;7.10;;
17618;SDS011;8928;51.678;6.074;2023-07-29T02:36:49;12.02;;;7.40;;
17618;SDS011;8928;51.678;6.074;2023-07-29T02:39:36;14.57;;;7.78;;
17618;SDS011;8928;51.678;6.074;2023-07-29T02:42:23;12.45;;;7.28;;
17618;SDS011;8928;51.678;6.074;2023-07-29T02:45:10;15.90;;;7.28;;
17618;SDS011;8928;51.678;6.074;2023-07-29T02:47:59;9.90;;;6.80;;
17618;SDS011;8928;51.678;6.074;2023-07-29T02:50:46;12.65;;;6.75;;
17618;SDS011;8928;51.678;6.074;2023-07-29T02:53:33;9.30;;;6.78;;
17618;SDS011;8928;51.678;6.074;2023-07-29T02:56:22;11.60;;;7.30;;
17618;SDS011;8928;51.678;6.074;2023-07-29T02:59:09;11.77;;;7.30;;
17618;SDS011;8928;51.678;6.074;2023-07-29T03:01:56;15.52;;;7.28;;
17618;SDS011;8928;51.678;6.074;2023-07-29T03:04:44;17.75;;;8.48;;
17618;SDS011;8928;51.678;6.074;2023-07-29T03:07:31;14.50;;;8.98;;
17618;SDS011;8928;51.678;6.074;2023-07-29T03:10:18;18.90;;;9.07;;
17618;SDS011;8928;51.678;6.074;2023-07-29T03:13:05;14.35;;;9.25;;
17618;SDS011;8928;51.678;6.074;2023-07-29T03:15:52;13.43;;;8.40;;
17618;SDS011;8928;51.678;6.074;2023-07-29T03:18:40;11.75;;;7.60;;
17618;SDS011;8928;51.678;6.074;2023-07-29T03:21:29;9.15;;;6.53;;
17618;SDS011;8928;51.678;6.074;2023-07-29T03:24:16;8.20;;;6.07;;
17618;SDS011;8928;51.678;6.074;2023-07-29T03:27:03;8.23;;;5.68;;
17618;SDS011;8928;51.678;6.074;2023-07-29T03:29:50;7.85;;;5.53;;
17618;SDS011;8928;51.678;6.074;2023-07-29T03:32:40;10.50;;;5.70;;
17618;SDS011;8928;51.678;6.074;2023-07-29T03:35:29;9.48;;;5.43;;
17618;SDS011;8928;51.678;6.074;2023-07-29T03:38:18;10.63;;;6.20;;
17618;SDS011;8928;51.678;6.074;2023-07-29T03:41:05;10.43;;;5.68;;
17618;SDS011;8928;51.678;6.074;2023-07-29T03:43:52;14.02;;;5.85;;
17618;SDS011;8928;51.678;6.074;2023-07-29T03:46:39;11.37;;;5.93;;
17618;SDS011;8928;51.678;6.074;2023-07-29T03:49:26;9.07;;;5.90;;
17618;SDS011;8928;51.678;6.074;2023-07-29T03:52:13;11.63;;;6.00;;
17618;SDS011;8928;51.678;6.074;2023-07-29T03:55:02;9.80;;;5.80;;
17618;SDS011;8928;51.678;6.074;2023-07-29T03:57:49;12.67;;;6.20;;
17618;SDS011;8928;51.678;6.074;2023-07-29T04:00:36;10.53;;;6.30;;
17618;SDS011;8928;51.678;6.074;2023-07-29T04:03:24;11.20;;;6.50;;
17618;SDS011;8928;51.678;6.074;2023-07-29T04:06:11;14.93;;;7.70;;
17618;SDS011;8928;51.678;6.074;2023-07-29T04:08:59;15.47;;;7.23;;
17618;SDS011;8928;51.678;6.074;2023-07-29T04:11:47;13.77;;;7.23;;
17618;SDS011;8928;51.678;6.074;2023-07-29T04:14:34;13.63;;;7.53;;
17618;SDS011;8928;51.678;6.074;2023-07-29T04:17:21;16.43;;;7.83;;
17618;SDS011;8928;51.678;6.074;2023-07-29T04:20:09;12.03;;;7.50;;
17618;SDS011;8928;51.678;6.074;2023-07-29T04:22:57;14.90;;;7.70;;
17618;SDS011;8928;51.678;6.074;2023-07-29T04:25:44;12.33;;;7.10;;
17618;SDS011;8928;51.678;6.074;2023-07-29T04:28:32;13.33;;;6.80;;
17618;SDS011;8928;51.678;6.074;2023-07-29T04:31:19;11.90;;;7.23;;
17618;SDS011;8928;51.678;6.074;2023-07-29T04:34:06;15.00;;;7.47;;
17618;SDS011;8928;51.678;6.074;2023-07-29T04:36:54;14.60;;;7.53;;
17618;SDS011;8928;51.678;6.074;2023-07-29T04:39:41;13.97;;;7.27;;
17618;SDS011;8928;51.678;6.074;2023-07-29T04:42:28;10.80;;;7.07;;
17618;SDS011;8928;51.678;6.074;2023-07-29T04:45:16;15.07;;;8.27;;
17618;SDS011;8928;51.678;6.074;2023-07-29T04:48:04;16.20;;;8.30;;
17618;SDS011;8928;51.678;6.074;2023-07-29T04:50:51;16.37;;;7.70;;
17618;SDS011;8928;51.678;6.074;2023-07-29T04:53:38;10.80;;;7.60;;
17618;SDS011;8928;51.678;6.074;2023-07-29T04:56:25;16.43;;;8.90;;
17618;SDS011;8928;51.678;6.074;2023-07-29T04:59:12;15.40;;;8.57;;
17618;SDS011;8928;51.678;6.074;2023-07-29T05:02:00;17.00;;;8.67;;
17618;SDS011;8928;51.678;6.074;2023-07-29T05:04:47;17.67;;;8.33;;
17618;SDS011;8928;51.678;6.074;2023-07-29T05:07:34;13.83;;;7.87;;
17618;SDS011;8928;51.678;6.074;2023-07-29T05:10:21;11.17;;;7.40;;
17618;SDS011;8928;51.678;6.074;2023-07-29T05:13:09;9.30;;;6.60;;
17618;SDS011;8928;51.678;6.074;2023-07-29T05:15:56;12.30;;;5.77;;
17618;SDS011;8928;51.678;6.074;2023-07-29T05:18:44;10.20;;;5.90;;
17618;SDS011;8928;51.678;6.074;2023-07-29T05:21:31;14.43;;;5.80;;
17618;SDS011;8928;51.678;6.074;2023-07-29T05:24:18;15.77;;;5.93;;
17618;SDS011;8928;51.678;6.074;2023-07-29T05:27:05;9.90;;;5.60;;
17618;SDS011;8928;51.678;6.074;2023-07-29T05:29:53;7.67;;;5.20;;
17618;SDS011;8928;51.678;6.074;2023-07-29T05:32:41;9.63;;;4.73;;
17618;SDS011;8928;51.678;6.074;2023-07-29T05:35:29;9.57;;;5.13;;
17618;SDS011;8928;51.678;6.074;2023-07-29T05:38:16;10.57;;;5.40;;
17618;SDS011;8928;51.678;6.074;2023-07-29T05:41:03;12.38;;;5.60;;
17618;SDS011;8928;51.678;6.074;2023-07-29T05:43:50;10.15;;;5.45;;
17618;SDS011;8928;51.678;6.074;2023-07-29T05:46:37;9.85;;;5.75;;
17618;SDS011;8928;51.678;6.074;2023-07-29T05:49:24;9.90;;;5.63;;
17618;SDS011;8928;51.678;6.074;2023-07-29T05:52:12;10.77;;;5.30;;
17618;SDS011;8928;51.678;6.074;2023-07-29T05:55:00;10.67;;;4.80;;
17618;SDS011;8928;51.678;6.074;2023-07-29T05:57:47;8.30;;;5.07;;
17618;SDS011;8928;51.678;6.074;2023-07-29T06:00:34;8.10;;;4.90;;
17618;SDS011;8928;51.678;6.074;2023-07-29T06:03:22;9.02;;;4.80;;
17618;SDS011;8928;51.678;6.074;2023-07-29T06:06:09;11.20;;;4.80;;
17618;SDS011;8928;51.678;6.074;2023-07-29T06:08:58;8.23;;;4.77;;
17618;SDS011;8928;51.678;6.074;2023-07-29T06:11:45;9.00;;;5.17;;
17618;SDS011;8928;51.678;6.074;2023-07-29T06:14:32;11.97;;;5.63;;
17618;SDS011;8928;51.678;6.074;2023-07-29T06:17:19;7.93;;;4.93;;
17618;SDS011;8928;51.678;6.074;2023-07-29T06:20:06;9.10;;;5.20;;
17618;SDS011;8928;51.678;6.074;2023-07-29T06:22:54;10.57;;;4.73;;
17618;SDS011;8928;51.678;6.074;2023-07-29T06:25:42;7.63;;;4.63;;
17618;SDS011;8928;51.678;6.074;2023-07-29T06:28:29;6.22;;;4.40;;
17618;SDS011;8928;51.678;6.074;2023-07-29T06:31:16;7.97;;;4.82;;
17618;SDS011;8928;51.678;6.074;2023-07-29T06:34:03;8.05;;;4.55;;
17618;SDS011;8928;51.678;6.074;2023-07-29T06:36:50;7.85;;;4.78;;
17618;SDS011;8928;51.678;6.074;2023-07-29T06:39:37;11.40;;;4.30;;
17618;SDS011;8928;51.678;6.074;2023-07-29T06:42:26;6.88;;;3.70;;
17618;SDS011;8928;51.678;6.074;2023-07-29T06:45:13;9.38;;;3.92;;
17618;SDS011;8928;51.678;6.074;2023-07-29T06:48:00;7.22;;;3.85;;
17618;SDS011;8928;51.678;6.074;2023-07-29T06:50:48;6.97;;;3.42;;
17618;SDS011;8928;51.678;6.074;2023-07-29T06:53:36;6.53;;;3.35;;
17618;SDS011;8928;51.678;6.074;2023-07-29T06:56:23;6.10;;;3.15;;
17618;SDS011;8928;51.678;6.074;2023-07-29T06:59:11;7.07;;;3.30;;
17618;SDS011;8928;51.678;6.074;2023-07-29T07:01:58;6.28;;;3.30;;
17618;SDS011;8928;51.678;6.074;2023-07-29T07:04:47;5.78;;;3.30;;
17618;SDS011;8928;51.678;6.074;2023-07-29T07:07:34;4.85;;;3.20;;
17618;SDS011;8928;51.678;6.074;2023-07-29T07:10:21;7.75;;;3.00;;
17618;SDS011;8928;51.678;6.074;2023-07-29T07:13:08;4.63;;;3.08;;
17618;SDS011;8928;51.678;6.074;2023-07-29T07:15:57;5.80;;;3.55;;
17618;SDS011;8928;51.678;6.074;2023-07-29T07:18:44;5.20;;;3.33;;
17618;SDS011;8928;51.678;6.074;2023-07-29T07:21:31;5.07;;;3.40;;
17618;SDS011;8928;51.678;6.074;2023-07-29T07:24:18;5.05;;;3.40;;
17618;SDS011;8928;51.678;6.074;2023-07-29T07:27:05;7.25;;;3.70;;
17618;SDS011;8928;51.678;6.074;2023-07-29T07:29:52;5.97;;;3.47;;
17618;SDS011;8928;51.678;6.074;2023-07-29T07:32:41;5.97;;;3.45;;
17618;SDS011;8928;51.678;6.074;2023-07-29T07:35:28;5.65;;;3.40;;
17618;SDS011;8928;51.678;6.074;2023-07-29T07:38:15;6.20;;;3.75;;
17618;SDS011;8928;51.678;6.074;2023-07-29T07:41:02;5.75;;;3.40;;
17618;SDS011;8928;51.678;6.074;2023-07-29T07:43:49;8.00;;;3.75;;
17618;SDS011;8928;51.678;6.074;2023-07-29T07:46:36;6.68;;;3.75;;
17618;SDS011;8928;51.678;6.074;2023-07-29T07:49:25;5.38;;;3.40;;
17618;SDS011;8928;51.678;6.074;2023-07-29T07:52:12;5.63;;;3.20;;
17618;SDS011;8928;51.678;6.074;2023-07-29T07:54:59;5.95;;;2.92;;
17618;SDS011;8928;51.678;6.074;2023-07-29T07:57:46;4.22;;;2.92;;
17618;SDS011;8928;51.678;6.074;2023-07-29T08:00:33;4.55;;;2.80;;
17618;SDS011;8928;51.678;6.074;2023-07-29T08:03:20;4.05;;;2.70;;
17618;SDS011;8928;51.678;6.074;2023-07-29T08:06:08;6.68;;;3.13;;
17618;SDS011;8928;51.678;6.074;2023-07-29T08:08:55;5.43;;;3.10;;
17618;SDS011;8928;51.678;6.074;2023-07-29T08:11:43;4.43;;;3.03;;
17618;SDS011;8928;51.678;6.074;2023-07-29T08:14:30;10.63;;;2.78;;
17618;SDS011;8928;51.678;6.074;2023-07-29T08:17:17;5.55;;;2.95;;
17618;SDS011;8928;51.678;6.074;2023-07-29T08:20:04;4.40;;;2.38;;
17618;SDS011;8928;51.678;6.074;2023-07-29T08:22:54;6.13;;;2.30;;
17618;SDS011;8928;51.678;6.074;2023-07-29T08:25:41;4.25;;;2.40;;
17618;SDS011;8928;51.678;6.074;2023-07-29T08:28:29;3.85;;;2.35;;
17618;SDS011;8928;51.678;6.074;2023-07-29T08:31:17;5.90;;;2.50;;
17618;SDS011;8928;51.678;6.074;2023-07-29T08:34:04;4.35;;;2.60;;
17618;SDS011;8928;51.678;6.074;2023-07-29T08:36:51;3.03;;;2.25;;
17618;SDS011;8928;51.678;6.074;2023-07-29T08:39:39;6.22;;;2.28;;
17618;SDS011;8928;51.678;6.074;2023-07-29T08:42:28;6.07;;;2.40;;
17618;SDS011;8928;51.678;6.074;2023-07-29T08:45:17;3.10;;;2.03;;
17618;SDS011;8928;51.678;6.074;2023-07-29T08:48:06;6.38;;;2.13;;
17618;SDS011;8928;51.678;6.074;2023-07-29T08:50:56;4.78;;;2.03;;
17618;SDS011;8928;51.678;6.074;2023-07-29T08:53:45;3.95;;;2.00;;
17618;SDS011;8928;51.678;6.074;2023-07-29T08:56:34;3.47;;;2.08;;
17618;SDS011;8928;51.678;6.074;2023-07-29T08:59:21;4.53;;;2.10;;
17618;SDS011;8928;51.678;6.074;2023-07-29T09:02:08;3.90;;;2.15;;
17618;SDS011;8928;51.678;6.074;2023-07-29T09:04:55;3.38;;;2.10;;
17618;SDS011;8928;51.678;6.074;2023-07-29T09:07:42;4.47;;;1.92;;
17618;SDS011;8928;51.678;6.074;2023-07-29T09:10:34;5.30;;;2.10;;
17618;SDS011;8928;51.678;6.074;2023-07-29T09:13:23;5.38;;;2.13;;
17618;SDS011;8928;51.678;6.074;2023-07-29T09:16:11;4.22;;;2.05;;
17618;SDS011;8928;51.678;6.074;2023-07-29T09:19:00;3.65;;;1.60;;
17618;SDS011;8928;51.678;6.074;2023-07-29T09:21:48;4.07;;;1.95;;
17618;SDS011;8928;51.678;6.074;2023-07-29T09:24:36;3.92;;;1.95;;
17618;SDS011;8928;51.678;6.074;2023-07-29T09:27:23;4.60;;;1.80;;
17618;SDS011;8928;51.678;6.074;2023-07-29T09:30:16;2.30;;;1.63;;
17618;SDS011;8928;51.678;6.074;2023-07-29T09:33:04;2.90;;;1.63;;
17618;SDS011;8928;51.678;6.074;2023-07-29T09:35:51;4.65;;;1.60;;
17618;SDS011;8928;51.678;6.074;2023-07-29T09:38:38;2.22;;;1.50;;
17618;SDS011;8928;51.678;6.074;2023-07-29T09:41:25;4.20;;;1.70;;
17618;SDS011;8928;51.678;6.074;2023-07-29T09:44:13;2.78;;;1.50;;
17618;SDS011;8928;51.678;6.074;2023-07-29T09:47:01;2.53;;;1.38;;
17618;SDS011;8928;51.678;6.074;2023-07-29T09:49:48;6.35;;;1.05;;
17618;SDS011;8928;51.678;6.074;2023-07-29T09:52:35;1.88;;;1.20;;
17618;SDS011;8928;51.678;6.074;2023-07-29T09:55:23;3.88;;;1.30;;
17618;SDS011;8928;51.678;6.074;2023-07-29T09:58:11;4.20;;;1.23;;
17618;SDS011;8928;51.678;6.074;2023-07-29T10:00:58;3.63;;;1.15;;
17618;SDS011;8928;51.678;6.074;2023-07-29T10:03:47;2.10;;;1.25;;
17618;SDS011;8928;51.678;6.074;2023-07-29T10:06:35;2.05;;;1.30;;
17618;SDS011;8928;51.678;6.074;2023-07-29T10:09:22;2.17;;;1.10;;
17618;SDS011;8928;51.678;6.074;2023-07-29T10:12:10;3.55;;;1.30;;
17618;SDS011;8928;51.678;6.074;2023-07-29T10:14:59;3.92;;;1.13;;
17618;SDS011;8928;51.678;6.074;2023-07-29T10:17:46;3.25;;;1.13;;
17618;SDS011;8928;51.678;6.074;2023-07-29T10:20:35;4.00;;;1.35;;
17618;SDS011;8928;51.678;6.074;2023-07-29T10:23:24;2.33;;;1.00;;
17618;SDS011;8928;51.678;6.074;2023-07-29T10:26:12;2.17;;;1.20;;
17618;SDS011;8928;51.678;6.074;2023-07-29T10:29:00;1.85;;;1.13;;
17618;SDS011;8928;51.678;6.074;2023-07-29T10:31:54;2.72;;;1.30;;
17618;SDS011;8928;51.678;6.074;2023-07-29T10:34:43;4.07;;;1.20;;
17618;SDS011;8928;51.678;6.074;2023-07-29T10:37:32;5.13;;;1.10;;
17618;SDS011;8928;51.678;6.074;2023-07-29T10:40:19;1.70;;;1.17;;
17618;SDS011;8928;51.678;6.074;2023-07-29T10:43:09;3.85;;;1.20;;
17618;SDS011;8928;51.678;6.074;2023-07-29T10:45:57;2.28;;;1.20;;
17618;SDS011;8928;51.678;6.074;2023-07-29T10:49:01;2.03;;;1.20;;
17618;SDS011;8928;51.678;6.074;2023-07-29T10:51:48;1.50;;;1.10;;
17618;SDS011;8928;51.678;6.074;2023-07-29T10:54:43;2.58;;;1.20;;
17618;SDS011;8928;51.678;6.074;2023-07-29T10:57:30;3.67;;;1.40;;
17618;SDS011;8928;51.678;6.074;2023-07-29T11:00:19;4.57;;;1.40;;
17618;SDS011;8928;51.678;6.074;2023-07-29T11:03:07;4.18;;;1.50;;
17618;SDS011;8928;51.678;6.074;2023-07-29T11:05:54;4.40;;;1.38;;
17618;SDS011;8928;51.678;6.074;2023-07-29T11:08:41;2.45;;;1.20;;
17618;SDS011;8928;51.678;6.074;2023-07-29T11:11:32;4.68;;;1.50;;
17618;SDS011;8928;51.678;6.074;2023-07-29T11:14:19;3.67;;;1.33;;
17618;SDS011;8928;51.678;6.074;2023-07-29T11:17:07;2.95;;;1.27;;
17618;SDS011;8928;51.678;6.074;2023-07-29T11:19:55;3.78;;;1.20;;
17618;SDS011;8928;51.678;6.074;2023-07-29T11:22:45;3.13;;;1.27;;
17618;SDS011;8928;51.678;6.074;2023-07-29T11:25:32;3.28;;;1.40;;
17618;SDS011;8928;51.678;6.074;2023-07-29T11:28:22;2.65;;;1.20;;
17618;SDS011;8928;51.678;6.074;2023-07-29T11:31:09;3.47;;;1.38;;
17618;SDS011;8928;51.678;6.074;2023-07-29T11:33:56;2.95;;;1.38;;
17618;SDS011;8928;51.678;6.074;2023-07-29T11:36:44;2.20;;;1.30;;
17618;SDS011;8928;51.678;6.074;2023-07-29T11:39:32;2.58;;;1.42;;
17618;SDS011;8928;51.678;6.074;2023-07-29T11:42:19;2.90;;;1.40;;
17618;SDS011;8928;51.678;6.074;2023-07-29T11:45:08;2.38;;;1.35;;
17618;SDS011;8928;51.678;6.074;2023-07-29T11:47:56;1.73;;;1.30;;
17618;SDS011;8928;51.678;6.074;2023-07-29T11:50:44;2.95;;;1.20;;
17618;SDS011;8928;51.678;6.074;2023-07-29T11:53:32;2.47;;;1.20;;
17618;SDS011;8928;51.678;6.074;2023-07-29T11:56:19;3.97;;;1.30;;
17618;SDS011;8928;51.678;6.074;2023-07-29T11:59:06;2.17;;;1.40;;
17618;SDS011;8928;51.678;6.074;2023-07-29T12:01:55;2.25;;;1.20;;
17618;SDS011;8928;51.678;6.074;2023-07-29T12:04:43;2.88;;;1.27;;
17618;SDS011;8928;51.678;6.074;2023-07-29T12:07:31;2.25;;;1.30;;
17618;SDS011;8928;51.678;6.074;2023-07-29T12:10:19;3.67;;;1.30;;
17618;SDS011;8928;51.678;6.074;2023-07-29T12:13:07;2.33;;;1.45;;
17618;SDS011;8928;51.678;6.074;2023-07-29T12:16:00;4.25;;;1.30;;
17618;SDS011;8928;51.678;6.074;2023-07-29T12:18:50;2.38;;;1.40;;
17618;SDS011;8928;51.678;6.074;2023-07-29T12:21:38;3.75;;;1.30;;
17618;SDS011;8928;51.678;6.074;2023-07-29T12:24:25;3.25;;;1.35;;
17618;SDS011;8928;51.678;6.074;2023-07-29T12:27:12;1.77;;;1.10;;
17618;SDS011;8928;51.678;6.074;2023-07-29T12:30:01;1.80;;;1.23;;
17618;SDS011;8928;51.678;6.074;2023-07-29T12:32:49;2.70;;;1.40;;
17618;SDS011;8928;51.678;6.074;2023-07-29T12:35:38;2.63;;;1.38;;
17618;SDS011;8928;51.678;6.074;2023-07-29T12:38:25;0.65;;;0.47;;
17618;SDS011;8928;51.678;6.074;2023-07-29T12:41:12;0.68;;;0.40;;
17618;SDS011;8928;51.678;6.074;2023-07-29T12:43:59;1.25;;;0.30;;
17618;SDS011;8928;51.678;6.074;2023-07-29T12:46:46;2.90;;;0.50;;
17618;SDS011;8928;51.678;6.074;2023-07-29T12:49:33;1.60;;;0.50;;
17618;SDS011;8928;51.678;6.074;2023-07-29T12:52:22;3.00;;;0.40;;
17618;SDS011;8928;51.678;6.074;2023-07-29T12:55:09;1.17;;;0.40;;
17618;SDS011;8928;51.678;6.074;2023-07-29T12:57:58;0.63;;;0.40;;
17618;SDS011;8928;51.678;6.074;2023-07-29T13:00:46;1.30;;;0.68;;
17618;SDS011;8928;51.678;6.074;2023-07-29T13:03:33;1.52;;;0.68;;
17618;SDS011;8928;51.678;6.074;2023-07-29T13:06:20;7.22;;;1.00;;
17618;SDS011;8928;51.678;6.074;2023-07-29T13:09:08;6.78;;;1.20;;
17618;SDS011;8928;51.678;6.074;2023-07-29T13:11:55;5.03;;;1.08;;
17618;SDS011;8928;51.678;6.074;2023-07-29T13:14:42;13.13;;;2.25;;
17618;SDS011;8928;51.678;6.074;2023-07-29T13:17:29;10.32;;;1.77;;
17618;SDS011;8928;51.678;6.074;2023-07-29T13:20:17;6.47;;;1.80;;
17618;SDS011;8928;51.678;6.074;2023-07-29T13:23:04;9.13;;;1.80;;
17618;SDS011;8928;51.678;6.074;2023-07-29T13:25:52;5.13;;;2.10;;
17618;SDS011;8928;51.678;6.074;2023-07-29T13:28:39;7.57;;;1.98;;
17618;SDS011;8928;51.678;6.074;2023-07-29T13:31:26;9.18;;;2.17;;
17618;SDS011;8928;51.678;6.074;2023-07-29T13:34:13;4.90;;;1.40;;
17618;SDS011;8928;51.678;6.074;2023-07-29T13:37:00;5.15;;;1.40;;
17618;SDS011;8928;51.678;6.074;2023-07-29T13:39:47;3.78;;;1.40;;
17618;SDS011;8928;51.678;6.074;2023-07-29T13:42:36;3.95;;;1.23;;
17618;SDS011;8928;51.678;6.074;2023-07-29T13:45:23;2.42;;;1.27;;
17618;SDS011;8928;51.678;6.074;2023-07-29T13:48:10;4.75;;;2.00;;
17618;SDS011;8928;51.678;6.074;2023-07-29T13:50:57;4.18;;;1.75;;
17618;SDS011;8928;51.678;6.074;2023-07-29T13:53:44;6.32;;;1.58;;
17618;SDS011;8928;51.678;6.074;2023-07-29T13:56:31;3.45;;;1.40;;
17618;SDS011;8928;51.678;6.074;2023-07-29T13:59:19;5.03;;;1.60;;
17618;SDS011;8928;51.678;6.074;2023-07-29T14:02:06;2.38;;;1.00;;
17618;SDS011;8928;51.678;6.074;2023-07-29T14:04:53;2.65;;;0.98;;
17618;SDS011;8928;51.678;6.074;2023-07-29T14:07:40;3.08;;;1.08;;
17618;SDS011;8928;51.678;6.074;2023-07-29T14:10:27;3.42;;;1.13;;
17618;SDS011;8928;51.678;6.074;2023-07-29T14:13:14;3.20;;;1.05;;
17618;SDS011;8928;51.678;6.074;2023-07-29T14:16:03;3.00;;;1.10;;
17618;SDS011;8928;51.678;6.074;2023-07-29T14:18:50;1.77;;;0.98;;
17618;SDS011;8928;51.678;6.074;2023-07-29T14:21:37;2.83;;;1.20;;
17618;SDS011;8928;51.678;6.074;2023-07-29T14:24:24;2.90;;;1.10;;
17618;SDS011;8928;51.678;6.074;2023-07-29T14:27:11;2.08;;;1.05;;
17618;SDS011;8928;51.678;6.074;2023-07-29T14:29:59;1.63;;;1.00;;
17618;SDS011;8928;51.678;6.074;2023-07-29T14:32:48;2.85;;;0.90;;
17618;SDS011;8928;51.678;6.074;2023-07-29T14:35:35;1.77;;;1.08;;
17618;SDS011;8928;51.678;6.074;2023-07-29T14:38:22;3.85;;;1.13;;
17618;SDS011;8928;51.678;6.074;2023-07-29T14:41:11;2.10;;;1.30;;
17618;SDS011;8928;51.678;6.074;2023-07-29T14:43:58;2.05;;;1.40;;
17618;SDS011;8928;51.678;6.074;2023-07-29T14:46:45;2.25;;;1.33;;
17618;SDS011;8928;51.678;6.074;2023-07-29T14:49:34;3.80;;;1.50;;
17618;SDS011;8928;51.678;6.074;2023-07-29T14:52:21;3.20;;;1.30;;
17618;SDS011;8928;51.678;6.074;2023-07-29T14:55:08;1.50;;;1.20;;
17618;SDS011;8928;51.678;6.074;2023-07-29T14:57:55;3.75;;;1.60;;
17618;SDS011;8928;51.678;6.074;2023-07-29T15:00:42;3.85;;;1.40;;
17618;SDS011;8928;51.678;6.074;2023-07-29T15:03:29;2.72;;;1.33;;
17618;SDS011;8928;51.678;6.074;2023-07-29T15:06:17;3.28;;;1.33;;
17618;SDS011;8928;51.678;6.074;2023-07-29T15:09:04;4.13;;;1.30;;
17618;SDS011;8928;51.678;6.074;2023-07-29T15:11:52;4.07;;;1.42;;
17618;SDS011;8928;51.678;6.074;2023-07-29T15:14:39;2.50;;;1.30;;
17618;SDS011;8928;51.678;6.074;2023-07-29T15:17:26;1.67;;;1.40;;
17618;SDS011;8928;51.678;6.074;2023-07-29T15:20:13;2.55;;;1.30;;
17618;SDS011;8928;51.678;6.074;2023-07-29T15:23:01;4.82;;;1.60;;
17618;SDS011;8928;51.678;6.074;2023-07-29T15:25:48;3.83;;;1.40;;
17618;SDS011;8928;51.678;6.074;2023-07-29T15:28:35;2.00;;;1.23;;
17618;SDS011;8928;51.678;6.074;2023-07-29T15:31:22;1.95;;;1.20;;
17618;SDS011;8928;51.678;6.074;2023-07-29T15:34:09;2.63;;;1.25;;
17618;SDS011;8928;51.678;6.074;2023-07-29T15:36:56;3.03;;;1.10;;
17618;SDS011;8928;51.678;6.074;2023-07-29T15:39:45;3.88;;;1.10;;
17618;SDS011;8928;51.678;6.074;2023-07-29T15:42:32;1.30;;;1.05;;
17618;SDS011;8928;51.678;6.074;2023-07-29T15:45:19;4.85;;;1.40;;
17618;SDS011;8928;51.678;6.074;2023-07-29T15:48:06;8.55;;;1.25;;
17618;SDS011;8928;51.678;6.074;2023-07-29T15:50:53;2.17;;;1.40;;
17618;SDS011;8928;51.678;6.074;2023-07-29T15:53:40;3.13;;;1.20;;
17618;SDS011;8928;51.678;6.074;2023-07-29T15:56:28;2.03;;;1.10;;
17618;SDS011;8928;51.678;6.074;2023-07-29T15:59:16;2.08;;;1.10;;
17618;SDS011;8928;51.678;6.074;2023-07-29T16:02:03;2.05;;;1.40;;
17618;SDS011;8928;51.678;6.074;2023-07-29T16:04:50;1.90;;;1.30;;
17618;SDS011;8928;51.678;6.074;2023-07-29T16:07:37;4.10;;;1.20;;
17618;SDS011;8928;51.678;6.074;2023-07-29T16:10:24;3.53;;;1.33;;
17618;SDS011;8928;51.678;6.074;2023-07-29T16:13:13;4.47;;;1.30;;
17618;SDS011;8928;51.678;6.074;2023-07-29T16:16:03;2.83;;;1.40;;
17618;SDS011;8928;51.678;6.074;2023-07-29T16:18:50;4.93;;;1.50;;
17618;SDS011;8928;51.678;6.074;2023-07-29T16:21:37;6.65;;;1.55;;
17618;SDS011;8928;51.678;6.074;2023-07-29T16:24:24;2.17;;;1.50;;
17618;SDS011;8928;51.678;6.074;2023-07-29T16:27:11;3.20;;;1.80;;
17618;SDS011;8928;51.678;6.074;2023-07-29T16:30:00;2.50;;;1.50;;
17618;SDS011;8928;51.678;6.074;2023-07-29T16:32:49;6.85;;;2.70;;
17618;SDS011;8928;51.678;6.074;2023-07-29T16:35:36;5.22;;;2.50;;
17618;SDS011;8928;51.678;6.074;2023-07-29T16:38:23;6.38;;;2.47;;
17618;SDS011;8928;51.678;6.074;2023-07-29T16:41:10;4.38;;;2.20;;
17618;SDS011;8928;51.678;6.074;2023-07-29T16:43:57;11.70;;;3.35;;
17618;SDS011;8928;51.678;6.074;2023-07-29T16:46:45;12.65;;;3.75;;
17618;SDS011;8928;51.678;6.074;2023-07-29T16:49:32;33.05;;;4.90;;
17618;SDS011;8928;51.678;6.074;2023-07-29T16:52:19;5.05;;;2.85;;
17618;SDS011;8928;51.678;6.074;2023-07-29T16:55:06;4.43;;;1.90;;
17618;SDS011;8928;51.678;6.074;2023-07-29T16:57:55;5.10;;;1.60;;
17618;SDS011;8928;51.678;6.074;2023-07-29T17:00:42;364.67;;;12.90;;
17618;SDS011;8928;51.678;6.074;2023-07-29T17:03:31;416.25;;;13.40;;